Observation data for Denver City on 02/11/2019      Previous  Date  Next       Current Mesonet Observations  Soil Data  Daily Summary Page  Observations in Plain Language
KDVS 110600Z 22008KT 06/03 A2991 RMK A01 T00640029  RH  080%=      5-min Rain = 0
KDVS 110605Z 22009KT 06/03 A2991 RMK A01 T00640029  RH  080%=      5-min Rain = 0
KDVS 110610Z 21008KT 07/03 A2991 RMK A01 T00650028  RH  079%=      5-min Rain = 0
KDVS 110615Z 19007KT 07/03 A2991 RMK A01 T00650029  RH  079%=      5-min Rain = 0
KDVS 110620Z 18007KT 06/03 A299 RMK A01 T00630030  RH  081%=      5-min Rain = 0
KDVS 110625Z 16007KT 06/03 A299 RMK A01 T00600030  RH  082%=      5-min Rain = 0
KDVS 110630Z 15005KT 06/03 A299 RMK A01 T00570029  RH  083%=      5-min Rain = 0
KDVS 110635Z 15004KT 06/03 A299 RMK A01 T00550028  RH  084%=      5-min Rain = 0
KDVS 110640Z 16003KT 05/03 A299 RMK A01 T00530028  RH  085%=      5-min Rain = 0
KDVS 110645Z 18003KT 05/03 A299 RMK A01 T00530028  RH  085%=      5-min Rain = 0
KDVS 110650Z 21002KT 05/03 A299 RMK A01 T00520027  RH  085%=      5-min Rain = 0
KDVS 110655Z 19002KT 05/03 A299 RMK A01 T00520027  RH  085%=      5-min Rain = 0
KDVS 110700Z 20003KT 05/03 A299 RMK A01 T00510026  RH  085%=      5-min Rain = 0
KDVS 110705Z 18005KT 05/03 A2989 RMK A01 T00500025  RH  085%=      5-min Rain = 0
KDVS 110710Z 17008KT 05/03 A2989 RMK A01 T00480025  RH  086%=      5-min Rain = 0
KDVS 110715Z 18008KT 05/03 A2989 RMK A01 T00470025  RH  087%=      5-min Rain = 0
KDVS 110720Z 18007KT 05/02 A2989 RMK A01 T00460024  RH  087%=      5-min Rain = 0
KDVS 110725Z 18007KT 05/02 A2989 RMK A01 T00460024  RH  087%=      5-min Rain = 0
KDVS 110730Z 19006KT 05/02 A2989 RMK A01 T00450023  RH  087%=      5-min Rain = 0
KDVS 110735Z 22006KT 05/02 A2989 RMK A01 T00450022  RH  087%=      5-min Rain = 0
KDVS 110740Z 21005KT 04/02 A2989 RMK A01 T00430020  RH  087%=      5-min Rain = 0
KDVS 110745Z 21006KT 04/02 A2989 RMK A01 T00410019  RH  087%=      5-min Rain = 0
KDVS 110750Z 21006KT 04/02 A2988 RMK A01 T00410017  RH  086%=      5-min Rain = 0
KDVS 110755Z 22006KT 04/02 A2988 RMK A01 T00390016  RH  086%=      5-min Rain = 0
KDVS 110800Z 22007KT 04/02 A2988 RMK A01 T00380015  RH  086%=      5-min Rain = 0
KDVS 110805Z 23007KT 04/01 A2988 RMK A01 T00360013  RH  086%=      5-min Rain = 0
KDVS 110810Z 23008KT 04/01 A2988 RMK A01 T00350013  RH  087%=      5-min Rain = 0
KDVS 110815Z 23008KT 03/01 A2987 RMK A01 T00340013  RH  087%=      5-min Rain = 0
KDVS 110820Z 22008KT 03/01 A2987 RMK A01 T00330012  RH  087%=      5-min Rain = 0
KDVS 110825Z 21008KT 03/01 A2987 RMK A01 T00310011  RH  087%=      5-min Rain = 0
KDVS 110830Z 21008KT 03/01 A2987 RMK A01 T00290009  RH  088%=      5-min Rain = 0
KDVS 110835Z 21009KT 03/01 A2987 RMK A01 T00280009  RH  088%=      5-min Rain = 0
KDVS 110840Z 20009KT 03/01 A2987 RMK A01 T00280009  RH  088%=      5-min Rain = 0
KDVS 110845Z 21009KT 03/01 A2986 RMK A01 T00270008  RH  089%=      5-min Rain = 0
KDVS 110850Z 21009KT 03/01 A2986 RMK A01 T00270009  RH  089%=      5-min Rain = 0
KDVS 110855Z 21008KT 03/01 A2986 RMK A01 T00270009  RH  089%=      5-min Rain = 0
KDVS 110900Z 21009KT 03/01 A2986 RMK A01 T00270009  RH  089%=      5-min Rain = 0
KDVS 110905Z 21010KT 03/01 A2986 RMK A01 T00270009  RH  089%=      5-min Rain = 0
KDVS 110910Z 21010KT 03/01 A2986 RMK A01 T00280010  RH  089%=      5-min Rain = 0
KDVS 110915Z 21009KT 03/01 A2985 RMK A01 T00290010  RH  089%=      5-min Rain = 0
KDVS 110920Z 21009KT 03/01 A2985 RMK A01 T00300010  RH  088%=      5-min Rain = 0
KDVS 110925Z 21010KT 03/01 A2985 RMK A01 T00300010  RH  088%=      5-min Rain = 0
KDVS 110930Z 21011KT 03/01 A2985 RMK A01 T00300010  RH  087%=      5-min Rain = 0
KDVS 110935Z 21011KT 03/01 A2985 RMK A01 T00300009  RH  087%=      5-min Rain = 0
KDVS 110940Z 22010KT 03/01 A2985 RMK A01 T00300009  RH  087%=      5-min Rain = 0
KDVS 110945Z 22010KT 03/01 A2985 RMK A01 T00320008  RH  086%=      5-min Rain = 0
KDVS 110950Z 23009KT 03/01 A2985 RMK A01 T00340008  RH  084%=      5-min Rain = 0
KDVS 110955Z 23009KT 03/01 A2984 RMK A01 T00340007  RH  083%=      5-min Rain = 0
KDVS 111000Z 23008KT 03/01 A2984 RMK A01 T00330006  RH  083%=      5-min Rain = 0
KDVS 111005Z 22007KT 03/01 A2984 RMK A01 T00330006  RH  084%=      5-min Rain = 0
KDVS 111010Z 21007KT 03/01 A2983 RMK A01 T00330006  RH  084%=      5-min Rain = 0
KDVS 111015Z 19006KT 03/01 A2983 RMK A01 T00320006  RH  084%=      5-min Rain = 0
KDVS 111020Z 21007KT 03/01 A2983 RMK A01 T00300006  RH  085%=      5-min Rain = 0
KDVS 111025Z 22008KT 03/01 A2983 RMK A01 T00320007  RH  085%=      5-min Rain = 0
KDVS 111030Z 22007KT 03/01 A2983 RMK A01 T00330008  RH  085%=      5-min Rain = 0
KDVS 111035Z 23008KT 04/01 A2983 RMK A01 T00360011  RH  085%=      5-min Rain = 0
KDVS 111040Z 23009KT 04/01 A2982 RMK A01 T00420013  RH  083%=      5-min Rain = 0
KDVS 111045Z 23009KT 05/01 A2982 RMK A01 T00450014  RH  082%=      5-min Rain = 0
KDVS 111050Z 24009KT 05/02 A2982 RMK A01 T00460016  RH  082%=      5-min Rain = 0
KDVS 111055Z 23009KT 05/02 A2982 RMK A01 T00470015  RH  081%=      5-min Rain = 0
KDVS 111100Z 20009KT 05/01 A2982 RMK A01 T00450014  RH  082%=      5-min Rain = 0
KDVS 111105Z 20009KT 04/01 A2982 RMK A01 T00420013  RH  082%=      5-min Rain = 0
KDVS 111110Z 20009KT 04/01 A2982 RMK A01 T00410012  RH  083%=      5-min Rain = 0
KDVS 111115Z 20010KT 04/01 A2982 RMK A01 T00390013  RH  084%=      5-min Rain = 0
KDVS 111120Z 22009KT 04/01 A2981 RMK A01 T00400014  RH  084%=      5-min Rain = 0
KDVS 111125Z 21010KT 04/02 A2981 RMK A01 T00420016  RH  084%=      5-min Rain = 0
KDVS 111130Z 20010KT 04/02 A2981 RMK A01 T00420016  RH  084%=      5-min Rain = 0
KDVS 111135Z 20010KT 04/01 A298 RMK A01 T00410014  RH  084%=      5-min Rain = 0
KDVS 111140Z 20009KT 04/01 A298 RMK A01 T00400014  RH  084%=      5-min Rain = 0
KDVS 111145Z 20010KT 04/01 A298 RMK A01 T00390014  RH  085%=      5-min Rain = 0
KDVS 111150Z 21009KT 04/01 A298 RMK A01 T00390014  RH  085%=      5-min Rain = 0
KDVS 111155Z 21009KT 04/02 A298 RMK A01 T00390016  RH  086%=      5-min Rain = 0
KDVS 111200Z 21008KT 04/02 A298 RMK A01 T00400018  RH  087%=      5-min Rain = 0
KDVS 111205Z 21007KT 04/02 A298 RMK A01 T00420019  RH  086%=      5-min Rain = 0
KDVS 111210Z 22007KT 04/02 A298 RMK A01 T00430020  RH  086%=      5-min Rain = 0
KDVS 111215Z 22009KT 05/02 A298 RMK A01 T00450022  RH  086%=      5-min Rain = 0
KDVS 111220Z 21012KT 05/02 A2979 RMK A01 T00510023  RH  084%=      5-min Rain = 0
KDVS 111225Z 21012KT 05/02 A2979 RMK A01 T00540023  RH  082%=      5-min Rain = 0
KDVS 111230Z 22012KT 05/02 A2979 RMK A01 T00540023  RH  082%=      5-min Rain = 0
KDVS 111235Z 22012KT 05/02 A2979 RMK A01 T00540023  RH  082%=      5-min Rain = 0
KDVS 111240Z 22012KT 05/02 A2979 RMK A01 T00540023  RH  082%=      5-min Rain = 0
KDVS 111245Z 22011KT 06/02 A298 RMK A01 T00550024  RH  082%=      5-min Rain = 0
KDVS 111250Z 22011KT 06/02 A298 RMK A01 T00550024  RH  082%=      5-min Rain = 0
KDVS 111255Z 22010KT 06/03 A298 RMK A01 T00570025  RH  082%=      5-min Rain = 0
KDVS 111300Z 23011KT 06/03 A298 RMK A01 T00590026  RH  081%=      5-min Rain = 0
KDVS 111305Z 23011KT 06/03 A298 RMK A01 T00610027  RH  080%=      5-min Rain = 0
KDVS 111310Z 23011KT 06/03 A298 RMK A01 T00620028  RH  080%=      5-min Rain = 0
KDVS 111315Z 23010KT 06/03 A298 RMK A01 T00630028  RH  079%=      5-min Rain = 0
KDVS 111320Z 22010KT 06/03 A298 RMK A01 T00640028  RH  079%=      5-min Rain = 0
KDVS 111325Z 22009KT 06/03 A298 RMK A01 T00630029  RH  080%=      5-min Rain = 0
KDVS 111330Z 22010KT 06/03 A298 RMK A01 T00640029  RH  080%=      5-min Rain = 0
KDVS 111335Z 22011KT 06/03 A298 RMK A01 T00640029  RH  080%=      5-min Rain = 0
KDVS 111340Z 22010KT 06/03 A298 RMK A01 T00630029  RH  080%=      5-min Rain = 0
KDVS 111345Z 22010KT 06/03 A298 RMK A01 T00630029  RH  080%=      5-min Rain = 0
KDVS 111350Z 22010KT 06/03 A298 RMK A01 T00630029  RH  080%=      5-min Rain = 0
KDVS 111355Z 22010KT 06/03 A298 RMK A01 T00620029  RH  080%=      5-min Rain = 0
KDVS 111400Z 22009KT 06/03 A298 RMK A01 T00620029  RH  081%=      5-min Rain = 0
KDVS 111405Z 21009KT 06/03 A298 RMK A01 T00620029  RH  081%=      5-min Rain = 0
KDVS 111410Z 21008KT 06/03 A2981 RMK A01 T00600030  RH  082%=      5-min Rain = 0
KDVS 111415Z 21008KT 06/03 A2981 RMK A01 T00600030  RH  083%=      5-min Rain = 0
KDVS 111420Z 21008KT 06/03 A2981 RMK A01 T00590030  RH  083%=      5-min Rain = 0
KDVS 111425Z 21009KT 06/03 A2981 RMK A01 T00590031  RH  084%=      5-min Rain = 0
KDVS 111430Z 21009KT 06/03 A2981 RMK A01 T00600032  RH  084%=      5-min Rain = 0
KDVS 111435Z 19008KT 06/03 A2981 RMK A01 T00600032  RH  084%=      5-min Rain = 0
KDVS 111440Z 20009KT 06/03 A2982 RMK A01 T00600033  RH  084%=      5-min Rain = 0
KDVS 111445Z 21009KT 06/03 A2982 RMK A01 T00610033  RH  084%=      5-min Rain = 0
KDVS 111450Z 21008KT 06/03 A2982 RMK A01 T00620034  RH  084%=      5-min Rain = 0
KDVS 111455Z 21009G14KT 06/04 A2982 RMK A01 T00640036  RH  084%=      5-min Rain = 0
KDVS 111500Z 21010KT 07/04 A2982 RMK A01 T00670036  RH  082%=      5-min Rain = 0
KDVS 111505Z 20011KT 07/04 A2982 RMK A01 T00680036  RH  081%=      5-min Rain = 0
KDVS 111510Z 19014KT 07/04 A2982 RMK A01 T00700035  RH  080%=      5-min Rain = 0
KDVS 111515Z 19014KT 07/03 A2982 RMK A01 T00680031  RH  079%=      5-min Rain = 0
KDVS 111520Z 19017KT 06/03 A2982 RMK A01 T00610026  RH  079%=      5-min Rain = 0
KDVS 111525Z 19015KT 06/03 A2982 RMK A01 T00570025  RH  081%=      5-min Rain = 0
KDVS 111530Z 19016G21KT 06/03 A2983 RMK A01 T00550025  RH  082%=      5-min Rain = 0
KDVS 111535Z 19016KT 05/03 A2982 RMK A01 T00540026  RH  084%=      5-min Rain = 0
KDVS 111540Z 19015KT 05/03 A2982 RMK A01 T00530027  RH  085%=      5-min Rain = 0
KDVS 111545Z 20014G19KT 05/03 A2982 RMK A01 T00540028  RH  085%=      5-min Rain = 0
KDVS 111550Z 20014KT 06/03 A2983 RMK A01 T00550031  RH  086%=      5-min Rain = 0
KDVS 111555Z 20015KT 06/03 A2982 RMK A01 T00570032  RH  085%=      5-min Rain = 0
KDVS 111600Z 20014KT 06/03 A2983 RMK A01 T00590034  RH  086%=      5-min Rain = 0
KDVS 111605Z 20014KT 06/04 A2983 RMK A01 T00600035  RH  085%=      5-min Rain = 0
KDVS 111610Z 20014KT 06/03 A2982 RMK A01 T00610034  RH  084%=      5-min Rain = 0
KDVS 111615Z 20015KT 06/03 A2982 RMK A01 T00620033  RH  084%=      5-min Rain = 0
KDVS 111620Z 20015KT 06/03 A2982 RMK A01 T00620034  RH  083%=      5-min Rain = 0
KDVS 111625Z 19015KT 06/03 A2982 RMK A01 T00630034  RH  083%=      5-min Rain = 0
KDVS 111630Z 19015KT 06/03 A2982 RMK A01 T00630034  RH  083%=      5-min Rain = 0
KDVS 111635Z 20013KT 06/04 A2982 RMK A01 T00640035  RH  083%=      5-min Rain = 0
KDVS 111640Z 20013KT 07/04 A2982 RMK A01 T00660036  RH  083%=      5-min Rain = 0
KDVS 111645Z 20014KT 07/04 A2982 RMK A01 T00670037  RH  083%=      5-min Rain = 0
KDVS 111650Z 20014KT 07/04 A2981 RMK A01 T00680038  RH  082%=      5-min Rain = 0
KDVS 111655Z 20014KT 07/04 A2981 RMK A01 T00710040  RH  082%=      5-min Rain = 0
KDVS 111700Z 20015KT 07/04 A2981 RMK A01 T00740041  RH  081%=      5-min Rain = 0
KDVS 111705Z 20014G19KT 08/04 A298 RMK A01 T00760042  RH  080%=      5-min Rain = 0
KDVS 111710Z 20015KT 08/04 A298 RMK A01 T00790042  RH  079%=      5-min Rain = 0
KDVS 111715Z 20014KT 08/04 A2979 RMK A01 T00820044  RH  079%=      5-min Rain = 0
KDVS 111720Z 20016KT 08/04 A2979 RMK A01 T00830043  RH  078%=      5-min Rain = 0
KDVS 111725Z 21017KT 08/04 A2979 RMK A01 T00830043  RH  078%=      5-min Rain = 0
KDVS 111730Z 21016KT 08/04 A2979 RMK A01 T00840044  RH  077%=      5-min Rain = 0
KDVS 111735Z 20016KT 09/04 A2978 RMK A01 T00860044  RH  077%=      5-min Rain = 0
KDVS 111740Z 20017KT 09/05 A2978 RMK A01 T00880045  RH  076%=      5-min Rain = 0
KDVS 111745Z 20017G22KT 09/05 A2978 RMK A01 T00890045  RH  075%=      5-min Rain = 0
KDVS 111750Z 21017KT 09/05 A2978 RMK A01 T00910046  RH  075%=      5-min Rain = 0
KDVS 111755Z 21015G20KT 09/05 A2978 RMK A01 T00930047  RH  075%=      5-min Rain = 0
KDVS 111800Z 21015G21KT 10/05 A2978 RMK A01 T00950048  RH  074%=      5-min Rain = 0
KDVS 111805Z 21017KT 10/05 A2977 RMK A01 T00970047  RH  073%=      5-min Rain = 0
KDVS 111810Z 20015KT 10/05 A2977 RMK A01 T01000048  RH  072%=      5-min Rain = 0
KDVS 111815Z 21016G22KT 10/05 A2976 RMK A01 T01020049  RH  071%=      5-min Rain = 0
KDVS 111820Z 20019G24KT 11/05 A2975 RMK A01 T01070048  RH  068%=      5-min Rain = 0
KDVS 111825Z 21018G23KT 11/05 A2975 RMK A01 T01100049  RH  067%=      5-min Rain = 0
KDVS 111830Z 21021KT 11/05 A2975 RMK A01 T01130046  RH  065%=      5-min Rain = 0
KDVS 111835Z 22021KT 12/05 A2975 RMK A01 T01150045  RH  063%=      5-min Rain = 0
KDVS 111840Z 22020KT 12/05 A2974 RMK A01 T01180045  RH  062%=      5-min Rain = 0
KDVS 111845Z 22020G25KT 12/04 A2974 RMK A01 T01200044  RH  061%=      5-min Rain = 0
KDVS 111850Z 22021G26KT 13/04 A2973 RMK A01 T01250044  RH  059%=      5-min Rain = 0
KDVS 111855Z 23021KT 13/04 A2973 RMK A01 T01270041  RH  057%=      5-min Rain = 0
KDVS 111900Z 22021G27KT 13/04 A2972 RMK A01 T01270039  RH  056%=      5-min Rain = 0
KDVS 111905Z 22022G27KT 13/04 A2972 RMK A01 T01270037  RH  055%=      5-min Rain = 0
KDVS 111910Z 22022KT 13/04 A2971 RMK A01 T01270040  RH  057%=      5-min Rain = 0
KDVS 111915Z 22021KT 13/04 A2971 RMK A01 T01270042  RH  057%=      5-min Rain = 0
KDVS 111920Z 23022G27KT 13/04 A2971 RMK A01 T01310040  RH  055%=      5-min Rain = 0
KDVS 111925Z 23024G33KT 13/04 A2971 RMK A01 T01330035  RH  053%=      5-min Rain = 0
KDVS 111930Z 23026G36KT 14/03 A2971 RMK A01 T01370029  RH  049%=      5-min Rain = 0
KDVS 111935Z 23027G33KT 14/03 A297 RMK A01 T01390028  RH  048%=      5-min Rain = 0
KDVS 111940Z 23024G32KT 14/03 A297 RMK A01 T01390029  RH  048%=      5-min Rain = 0
KDVS 111945Z 24027G34KT 14/02 A297 RMK A01 T01420021  RH  045%=      5-min Rain = 0
KDVS 111950Z 24026G33KT 15/02 A2969 RMK A01 T01470019  RH  042%=      5-min Rain = 0
KDVS 111955Z 24030G37KT 15/01 A2968 RMK A01 T01490012  RH  040%=      5-min Rain = 0
KDVS 112000Z 25029G35KT 15/01 A2968 RMK A01 T01500007  RH  038%=      5-min Rain = 0
KDVS 112005Z 24029G35KT 16/M00 A2968 RMK A01 T01561004  RH  034%=      5-min Rain = 0
KDVS 112010Z 24035G49KT 16/M02 A2966 RMK A01 T01581017  RH  030%=      5-min Rain = 0
KDVS 112015Z 24035G44KT 16/M03 A2966 RMK A01 T01571025  RH  029%=      5-min Rain = 0
KDVS 112020Z 23031G41KT 16/M02 A2967 RMK A01 T01561022  RH  029%=      5-min Rain = 0
KDVS 112025Z 24025G33KT 15/M03 A2967 RMK A01 T01511028  RH  029%=      5-min Rain = 0
KDVS 112030Z 25028G37KT 16/M04 A2967 RMK A01 T01601039  RH  025%=      5-min Rain = 0
KDVS 112035Z 24032G44KT 16/M05 A2966 RMK A01 T01641046  RH  023%=      5-min Rain = 0
KDVS 112040Z 25030G39KT 16/M05 A2967 RMK A01 T01641054  RH  022%=      5-min Rain = 0
KDVS 112045Z 25031G39KT 17/M05 A2966 RMK A01 T01651052  RH  022%=      5-min Rain = 0
KDVS 112050Z 25031G41KT 16/M05 A2966 RMK A01 T01571052  RH  023%=      5-min Rain = 0
KDVS 112055Z 25032G41KT 16/M06 A2967 RMK A01 T01601055  RH  022%=      5-min Rain = 0
KDVS 112100Z 25033G42KT 16/M06 A2967 RMK A01 T01631064  RH  021%=      5-min Rain = 0
KDVS 112105Z 25032G44KT 16/M07 A2967 RMK A01 T01591073  RH  020%=      5-min Rain = 0
KDVS 112110Z 26031G41KT 16/M08 A2966 RMK A01 T01601082  RH  018%=      5-min Rain = 0
KDVS 112115Z 26031G43KT 16/M07 A2967 RMK A01 T01621072  RH  019%=      5-min Rain = 0
KDVS 112120Z 25031G42KT 16/M08 A2967 RMK A01 T01611083  RH  018%=      5-min Rain = 0
KDVS 112125Z 26027G37KT 16/M09 A2967 RMK A01 T01621088  RH  017%=      5-min Rain = 0
KDVS 112130Z 25031G38KT 16/M09 A2967 RMK A01 T01601089  RH  017%=      5-min Rain = 0
KDVS 112135Z 26029G43KT 16/M10 A2967 RMK A01 T01591096  RH  016%=      5-min Rain = 0
KDVS 112140Z 25031G43KT 16/M11 A2967 RMK A01 T01571107  RH  015%=      5-min Rain = 0
KDVS 112145Z 25033G43KT 16/M11 A2967 RMK A01 T01561107  RH  015%=      5-min Rain = 0
KDVS 112150Z 25030G36KT 16/M11 A2967 RMK A01 T01551110  RH  015%=      5-min Rain = 0
KDVS 112155Z 26030G38KT 16/M12 A2967 RMK A01 T01561117  RH  014%=      5-min Rain = 0
KDVS 112200Z 26034G45KT 16/M12 A2967 RMK A01 T01551121  RH  014%=      5-min Rain = 0
KDVS 112205Z 26028G38KT 16/M12 A2968 RMK A01 T01551122  RH  014%=      5-min Rain = 0
KDVS 112210Z 26027G40KT 16/M12 A2968 RMK A01 T01561123  RH  013%=      5-min Rain = 0
KDVS 112215Z 26030G39KT 16/M13 A2968 RMK A01 T01551126  RH  013%=      5-min Rain = 0
KDVS 112220Z 28025G34KT 15/M13 A2969 RMK A01 T01531130  RH  013%=      5-min Rain = 0
KDVS 112225Z 28029G38KT 15/M13 A2969 RMK A01 T01501131  RH  013%=      5-min Rain = 0
KDVS 112230Z 29032G41KT 15/M13 A2969 RMK A01 T01461132  RH  013%=      5-min Rain = 0
KDVS 112235Z 29029G37KT 14/M11 A297 RMK A01 T01421114  RH  016%=      5-min Rain = 0
KDVS 112240Z 30033G41KT 13/M09 A2971 RMK A01 T01311090  RH  021%=      5-min Rain = 0
KDVS 112245Z 30033G42KT 13/M09 A2972 RMK A01 T01261092  RH  021%=      5-min Rain = 0
KDVS 112250Z 30035G44KT 12/M10 A2972 RMK A01 T01221095  RH  021%=      5-min Rain = 0
KDVS 112255Z 30032G41KT 12/M10 A2973 RMK A01 T01191097  RH  021%=      5-min Rain = 0
KDVS 112300Z 30031G42KT 12/M10 A2974 RMK A01 T01161104  RH  020%=      5-min Rain = 0
KDVS 112305Z 30028G38KT 12/M12 A2975 RMK A01 T01161122  RH  018%=      5-min Rain = 0
KDVS 112310Z 30032G40KT 11/M16 A2975 RMK A01 T01131155  RH  014%=      5-min Rain = 0
KDVS 112315Z 30030G42KT 11/M16 A2975 RMK A01 T01101163  RH  013%=      5-min Rain = 0
KDVS 112320Z 30034G44KT 11/M17 A2975 RMK A01 T01081172  RH  012%=      5-min Rain = 0
KDVS 112325Z 31036G45KT 10/M18 A2976 RMK A01 T01041183  RH  011%=      5-min Rain = 0
KDVS 112330Z 30034G42KT 10/M18 A2977 RMK A01 T01011183  RH  012%=      5-min Rain = 0
KDVS 112335Z 30033G45KT 10/M18 A2977 RMK A01 T00981184  RH  012%=      5-min Rain = 0
KDVS 112340Z 30031G38KT 10/M18 A2978 RMK A01 T00961184  RH  012%=      5-min Rain = 0
KDVS 112345Z 30032G44KT 10/M18 A2978 RMK A01 T00951184  RH  012%=      5-min Rain = 0
KDVS 112350Z 30030G39KT 10/M18 A2979 RMK A01 T00951184  RH  012%=      5-min Rain = 0
KDVS 112355Z 30031G41KT 09/M18 A2979 RMK A01 T00941182  RH  012%=      5-min Rain = 0
KDVS 120000Z 30032G40KT 09/M18 A298 RMK A01 T00921183  RH  012%=      5-min Rain = 0
KDVS 120005Z 30032G41KT 09/M18 A298 RMK A01 T00891181  RH  013%=      5-min Rain = 0
KDVS 120010Z 29035G44KT 09/M18 A2979 RMK A01 T00881182  RH  013%=      5-min Rain = 0
KDVS 120015Z 29035G47KT 09/M18 A298 RMK A01 T00871184  RH  013%=      5-min Rain = 0
KDVS 120020Z 30031G44KT 09/M18 A2981 RMK A01 T00851183  RH  013%=      5-min Rain = 0
KDVS 120025Z 29026G33KT 08/M18 A2982 RMK A01 T00821181  RH  014%=      5-min Rain = 0
KDVS 120030Z 29028G37KT 08/M18 A2982 RMK A01 T00801180  RH  014%=      5-min Rain = 0
KDVS 120035Z 29026G33KT 08/M18 A2982 RMK A01 T00791179  RH  014%=      5-min Rain = 0
KDVS 120040Z 29025G31KT 08/M18 A2982 RMK A01 T00781178  RH  014%=      5-min Rain = 0
KDVS 120045Z 28024G31KT 08/M18 A2983 RMK A01 T00761177  RH  015%=      5-min Rain = 0
KDVS 120050Z 28023G28KT 08/M18 A2983 RMK A01 T00751176  RH  015%=      5-min Rain = 0
KDVS 120055Z 28020G27KT 07/M17 A2983 RMK A01 T00741174  RH  015%=      5-min Rain = 0
KDVS 120100Z 27020KT 07/M17 A2983 RMK A01 T00721173  RH  015%=      5-min Rain = 0
KDVS 120105Z 28019G24KT 07/M17 A2984 RMK A01 T00721171  RH  016%=      5-min Rain = 0
KDVS 120110Z 28018G25KT 07/M17 A2985 RMK A01 T00701169  RH  016%=      5-min Rain = 0
KDVS 120115Z 28018G23KT 07/M17 A2985 RMK A01 T00691168  RH  016%=      5-min Rain = 0
KDVS 120120Z 27018G23KT 07/M17 A2985 RMK A01 T00681167  RH  017%=      5-min Rain = 0
KDVS 120125Z 28019G24KT 07/M17 A2986 RMK A01 T00691167  RH  017%=      5-min Rain = 0
KDVS 120130Z 28018G23KT 07/M17 A2987 RMK A01 T00681165  RH  017%=      5-min Rain = 0
KDVS 120135Z 28016KT 07/M16 A2988 RMK A01 T00661163  RH  017%=      5-min Rain = 0
KDVS 120140Z 28017KT 07/M16 A2988 RMK A01 T00661163  RH  017%=      5-min Rain = 0
KDVS 120145Z 28016G21KT 07/M16 A2988 RMK A01 T00661161  RH  018%=      5-min Rain = 0
KDVS 120150Z 28016G21KT 07/M16 A2988 RMK A01 T00651160  RH  018%=      5-min Rain = 0
KDVS 120155Z 27016KT 06/M16 A2989 RMK A01 T00631159  RH  018%=      5-min Rain = 0
KDVS 120200Z 28016KT 06/M16 A2989 RMK A01 T00621158  RH  019%=      5-min Rain = 0
KDVS 120205Z 28017KT 06/M16 A2989 RMK A01 T00621157  RH  019%=      5-min Rain = 0
KDVS 120210Z 28017G22KT 06/M16 A299 RMK A01 T00621156  RH  019%=      5-min Rain = 0
KDVS 120215Z 28018G23KT 06/M16 A299 RMK A01 T00621155  RH  019%=      5-min Rain = 0
KDVS 120220Z 29019G26KT 06/M16 A2991 RMK A01 T00611155  RH  019%=      5-min Rain = 0
KDVS 120225Z 29019G29KT 06/M16 A2991 RMK A01 T00611155  RH  019%=      5-min Rain = 0
KDVS 120230Z 29018G24KT 06/M15 A2992 RMK A01 T00611154  RH  019%=      5-min Rain = 0
KDVS 120235Z 29019G25KT 06/M15 A2992 RMK A01 T00621154  RH  019%=      5-min Rain = 0
KDVS 120240Z 29018KT 06/M15 A2993 RMK A01 T00611154  RH  020%=      5-min Rain = 0
KDVS 120245Z 29017KT 06/M15 A2993 RMK A01 T00591153  RH  020%=      5-min Rain = 0
KDVS 120250Z 29017KT 06/M15 A2993 RMK A01 T00571153  RH  020%=      5-min Rain = 0
KDVS 120255Z 29017G22KT 06/M15 A2994 RMK A01 T00561152  RH  021%=      5-min Rain = 0
KDVS 120300Z 29016G21KT 06/M15 A2994 RMK A01 T00551152  RH  021%=      5-min Rain = 0
KDVS 120305Z 28017KT 05/M15 A2994 RMK A01 T00541152  RH  021%=      5-min Rain = 0
KDVS 120310Z 28016KT 05/M15 A2995 RMK A01 T00531151  RH  021%=      5-min Rain = 0
KDVS 120315Z 28016G22KT 05/M15 A2995 RMK A01 T00521150  RH  021%=      5-min Rain = 0
KDVS 120320Z 28017KT 05/M15 A2995 RMK A01 T00521150  RH  022%=      5-min Rain = 0
KDVS 120325Z 29017KT 05/M15 A2995 RMK A01 T00511149  RH  022%=      5-min Rain = 0
KDVS 120330Z 29018KT 05/M15 A2995 RMK A01 T00511148  RH  022%=      5-min Rain = 0
KDVS 120335Z 29018KT 05/M15 A2996 RMK A01 T00511147  RH  022%=      5-min Rain = 0
KDVS 120340Z 28018G23KT 05/M15 A2996 RMK A01 T00511146  RH  022%=      5-min Rain = 0
KDVS 120345Z 28018G23KT 05/M15 A2997 RMK A01 T00511145  RH  022%=      5-min Rain = 0
KDVS 120350Z 28018KT 05/M14 A2997 RMK A01 T00511144  RH  023%=      5-min Rain = 0
KDVS 120355Z 28019G24KT 05/M14 A2998 RMK A01 T00511143  RH  023%=      5-min Rain = 0
KDVS 120400Z 28018KT 05/M14 A2998 RMK A01 T00501142  RH  023%=      5-min Rain = 0
KDVS 120405Z 29019KT 05/M14 A2998 RMK A01 T00491142  RH  023%=      5-min Rain = 0
KDVS 120410Z 29020KT 05/M14 A2998 RMK A01 T00501140  RH  024%=      5-min Rain = 0
KDVS 120415Z 29020G27KT 05/M14 A2999 RMK A01 T00511138  RH  024%=      5-min Rain = 0
KDVS 120420Z 29020G26KT 05/M14 A2999 RMK A01 T00521136  RH  024%=      5-min Rain = 0
KDVS 120425Z 29019G24KT 05/M14 A30 RMK A01 T00511135  RH  024%=      5-min Rain = 0
KDVS 120430Z 29019G25KT 05/M13 A30 RMK A01 T00511134  RH  025%=      5-min Rain = 0
KDVS 120435Z 29019G24KT 05/M13 A3001 RMK A01 T00521133  RH  025%=      5-min Rain = 0
KDVS 120440Z 29019G25KT 05/M13 A3001 RMK A01 T00521132  RH  025%=      5-min Rain = 0
KDVS 120445Z 29020KT 05/M13 A3002 RMK A01 T00521130  RH  025%=      5-min Rain = 0
KDVS 120450Z 29020G25KT 05/M13 A3002 RMK A01 T00521129  RH  026%=      5-min Rain = 0
KDVS 120455Z 29021G26KT 05/M13 A3002 RMK A01 T00521128  RH  026%=      5-min Rain = 0
KDVS 120500Z 29021G28KT 05/M13 A3003 RMK A01 T00521126  RH  026%=      5-min Rain = 0
KDVS 120505Z 30021G28KT 05/M13 A3003 RMK A01 T00531125  RH  026%=      5-min Rain = 0
KDVS 120510Z 30020KT 05/M12 A3004 RMK A01 T00511124  RH  027%=      5-min Rain = 0
KDVS 120515Z 30020G25KT 05/M12 A3004 RMK A01 T00501123  RH  027%=      5-min Rain = 0
KDVS 120520Z 30021KT 05/M12 A3004 RMK A01 T00501123  RH  027%=      5-min Rain = 0
KDVS 120525Z 30020G28KT 05/M12 A3004 RMK A01 T00491122  RH  028%=      5-min Rain = 0
KDVS 120530Z 30021KT 05/M12 A3004 RMK A01 T00501121  RH  028%=      5-min Rain = 0
KDVS 120535Z 30021G27KT 05/M12 A3005 RMK A01 T00491120  RH  028%=      5-min Rain = 0
KDVS 120540Z 30022KT 05/M12 A3005 RMK A01 T00501119  RH  028%=      5-min Rain = 0
KDVS 120545Z 30022G29KT 05/M12 A3005 RMK A01 T00501118  RH  028%=      5-min Rain = 0
KDVS 120550Z 31022G27KT 05/M12 A3005 RMK A01 T00491117  RH  029%=      5-min Rain = 0
KDVS 120555Z 31022KT 05/M12 A3005 RMK A01 T00491117  RH  029%=      5-min Rain = 0

Page generated in 0.0169 seconds.